Time;durP1;ratioP1;P1;durP2;ratioP2;P2;SDS_P1;SDS_P2;PMS_P1;PMS_P2;Temp;Humidity;BMP_temperature;BMP_pressure;BME280_temperature;BME280_humidity;BME280_pressure;Samples;Min_cycle;Max_cycle;Signal;HPM_P1;HPM_P2
2023/08/12 00:00:20;;;;;;;;;;;;;;;22.99;42.54;100047.97;3152769;28;19924;-71
2023/08/12 00:01:51;;;;;;;;;;;;;;;23.01;42.50;100059.28;3152538;28;19924;-71
2023/08/12 00:03:22;;;;;;;;;;;;;;;22.99;42.28;100051.47;3152795;28;20337;-71
2023/08/12 00:04:53;;;;;;;;;;;;;;;22.99;42.38;100054.13;3152637;28;19967;-71
2023/08/12 00:06:26;;;;;;;;;;;;;;;22.97;42.62;100061.38;3152031;28;19923;-71
2023/08/12 00:07:56;;;;;;;;;;;;;;;22.95;42.38;100060.69;3149297;28;19927;-71
2023/08/12 00:09:28;;;;;;;;;;;;;;;22.96;42.68;100058.88;3149188;28;19923;-71
2023/08/12 00:10:59;;;;;;;;;;;;;;;22.97;42.40;100058.72;3152793;28;20319;-71
2023/08/12 00:12:30;;;;;;;;;;;;;;;22.97;42.41;100063.22;3152756;28;20022;-71
2023/08/12 00:14:01;;;;;;;;;;;;;;;22.95;42.67;100058.03;3152752;28;19924;-71
2023/08/12 00:15:33;;;;;;;;;;;;;;;22.92;42.72;100058.28;3152527;28;20092;-71
2023/08/12 00:17:04;;;;;;;;;;;;;;;22.88;42.91;100051.59;3152589;28;19924;-71
2023/08/12 00:18:36;;;;;;;;;;;;;;;22.83;43.05;100052.00;3152586;28;19924;-71
2023/08/12 00:20:10;;;;;;;;;;;;;;;22.79;42.89;100047.97;3152635;28;19928;-73
2023/08/12 00:21:42;;;;;;;;;;;;;;;22.77;43.10;100049.91;3148295;28;20456;-71
2023/08/12 00:23:14;;;;;;;;;;;;;;;22.75;43.35;100051.91;3152371;28;20400;-71
2023/08/12 00:24:44;;;;;;;;;;;;;;;22.72;43.20;100046.88;3152953;28;19924;-71
2023/08/12 00:26:16;;;;;;;;;;;;;;;22.71;43.35;100051.31;3152835;28;20376;-71
2023/08/12 00:27:47;;;;;;;;;;;;;;;22.73;43.29;100040.56;3152659;28;19928;-71
2023/08/12 00:29:18;;;;;;;;;;;;;;;22.73;43.20;100053.84;3152585;28;19924;-71
2023/08/12 00:30:50;;;;;;;;;;;;;;;22.72;43.37;100046.88;3152389;28;19924;-71
2023/08/12 00:32:20;;;;;;;;;;;;;;;;;;3152530;28;19928;-71
2023/08/12 00:33:52;;;;;;;;;;;;;;;22.65;43.56;100043.09;3152549;28;20353;-71
2023/08/12 00:35:23;;;;;;;;;;;;;;;22.64;43.46;100047.56;3152703;28;19924;-71
2023/08/12 00:36:55;;;;;;;;;;;;;;;22.64;43.61;100046.72;3148241;28;19943;-71
2023/08/12 00:38:27;;;;;;;;;;;;;;;22.64;43.42;100052.03;3148785;28;19935;-71
2023/08/12 00:39:58;;;;;;;;;;;;;;;22.65;43.54;100048.38;3152462;28;19977;-70
2023/08/12 00:41:29;;;;;;;;;;;;;;;22.65;43.69;100048.38;3152512;28;20613;-71
2023/08/12 00:43:00;;;;;;;;;;;;;;;22.63;43.52;100045.91;3151656;28;19996;-71
2023/08/12 00:44:32;;;;;;;;;;;;;;;22.64;43.50;100049.38;3143155;28;19924;-72
2023/08/12 00:46:03;;;;;;;;;;;;;;;22.61;43.59;100047.84;3152706;28;19971;-72
2023/08/12 00:47:34;;;;;;;;;;;;;;;22.59;43.72;100047.13;3142012;28;20416;-72
2023/08/12 00:49:05;;;;;;;;;;;;;;;22.57;43.75;100045.59;3152567;28;19927;-72
2023/08/12 00:50:38;;;;;;;;;;;;;;;22.51;44.05;100041.72;3148071;28;19931;-72
2023/08/12 00:52:10;;;;;;;;;;;;;;;22.48;44.21;100039.34;3152542;28;19967;-72
2023/08/12 00:53:41;;;;;;;;;;;;;;;22.44;44.22;100045.88;3151422;28;19984;-71
2023/08/12 00:55:12;;;;;;;;;;;;;;;22.40;44.47;100033.88;3139879;28;19969;-72
2023/08/12 00:56:44;;;;;;;;;;;;;;;22.35;44.48;100036.09;3139690;28;20073;-71
2023/08/12 00:58:15;;;;;;;;;;;;;;;22.33;44.38;100032.75;3149964;28;19927;-72
2023/08/12 00:59:47;;;;;;;;;;;;;;;22.32;44.59;100029.25;3152475;28;19959;-71
2023/08/12 01:01:18;;;;;;;;;;;;;;;22.31;44.67;100030.25;3152107;28;20472;-72
2023/08/12 01:02:49;;;;;;;;;;;;;;;22.31;44.25;100029.41;3152482;28;19924;-72
2023/08/12 01:04:21;;;;;;;;;;;;;;;22.32;44.35;100023.97;3152192;28;20000;-72
2023/08/12 01:05:53;;;;;;;;;;;;;;;22.34;44.40;100031.78;3145550;28;19924;-72
2023/08/12 01:07:24;;;;;;;;;;;;;;;22.34;44.53;100029.13;3152383;28;19924;-72
2023/08/12 01:08:56;;;;;;;;;;;;;;;22.36;44.39;100028.03;3152305;28;19924;-72
2023/08/12 01:10:31;;;;;;;;;;;;;;;22.34;44.27;100029.97;3151926;28;19973;-71
2023/08/12 01:12:06;;;;;;;;;;;;;;;22.33;44.33;100030.97;3151800;28;19959;-72
2023/08/12 01:13:43;;;;;;;;;;;;;;;22.35;44.27;100033.47;3151961;28;19927;-72
2023/08/12 01:15:17;;;;;;;;;;;;;;;22.35;44.12;100039.59;3154685;28;19923;-71
2023/08/12 01:16:49;;;;;;;;;;;;;;;22.35;44.30;100034.28;3154334;28;20379;-71
2023/08/12 01:18:22;;;;;;;;;;;;;;;22.34;44.24;100037.94;3154190;28;19924;-71
2023/08/12 01:19:53;;;;;;;;;;;;;;;22.33;44.11;100033.63;3149414;28;20418;-71
2023/08/12 01:21:25;;;;;;;;;;;;;;;22.33;44.12;100033.63;3154300;28;19934;-71
2023/08/12 01:22:59;;;;;;;;;;;;;;;22.33;44.21;100030.97;3154674;28;19924;-72
2023/08/12 01:24:36;;;;;;;;;;;;;;;22.30;44.36;100033.84;3154294;28;20004;-72
2023/08/12 01:26:07;;;;;;;;;;;;;;;22.27;44.58;100031.47;3154137;28;19924;-71
2023/08/12 01:27:39;;;;;;;;;;;;;;;22.24;44.32;100032.63;3154426;28;19992;-72
2023/08/12 01:29:09;;;;;;;;;;;;;;;22.22;44.38;100031.91;3154316;28;19997;-71
2023/08/12 01:30:45;;;;;;;;;;;;;;;22.20;44.36;100030.38;3153970;28;19927;-71
2023/08/12 01:32:23;;;;;;;;;;;;;;;22.21;44.23;100032.03;3154270;28;19923;-72
2023/08/12 01:33:59;;;;;;;;;;;;;;;22.21;44.26;100037.34;3153488;28;19923;-72
2023/08/12 01:35:32;;;;;;;;;;;;;;;22.24;44.31;100037.06;3151732;28;19946;-71
2023/08/12 01:37:05;;;;;;;;;;;;;;;22.25;44.45;100033.47;3153750;28;19934;-71
2023/08/12 01:38:39;;;;;;;;;;;;;;;22.25;44.28;100033.47;3151209;28;19930;-72
2023/08/12 01:40:11;;;;;;;;;;;;;;;22.26;44.42;100037.78;3154192;28;20402;-71
2023/08/12 01:41:43;;;;;;;;;;;;;;;22.26;44.36;100040.44;3153788;28;19924;-71
2023/08/12 01:43:14;;;;;;;;;;;;;;;22.25;44.46;100044.06;3147569;28;19978;-72
2023/08/12 01:44:46;;;;;;;;;;;;;;;22.24;44.59;100037.94;3146582;28;20379;-71
2023/08/12 01:46:17;;;;;;;;;;;;;;;22.22;44.63;100045.19;3152560;28;20515;-72
2023/08/12 01:47:50;;;;;;;;;;;;;;;22.19;44.48;100037.50;3144659;28;20034;-72
2023/08/12 01:49:24;;;;;;;;;;;;;;;22.17;44.73;100042.09;3148613;28;20026;-71
2023/08/12 01:50:55;;;;;;;;;;;;;;;22.10;44.90;100042.78;3149282;28;20103;-72
2023/08/12 01:52:26;;;;;;;;;;;;;;;22.06;45.00;100044.00;3153892;28;19946;-72
2023/08/12 01:53:58;;;;;;;;;;;;;;;21.98;45.12;100037.59;3150893;28;20396;-71
2023/08/12 01:55:30;;;;;;;;;;;;;;;21.92;45.14;100037.31;3154329;28;20009;-72
2023/08/12 01:57:02;;;;;;;;;;;;;;;21.83;45.46;100038.09;3129239;28;19931;-71
2023/08/12 01:58:34;;;;;;;;;;;;;;;21.74;45.63;100037.94;3153292;28;19924;-71
2023/08/12 02:00:06;;;;;;;;;;;;;;;21.67;45.88;100038.59;3153869;28;19934;-71
2023/08/12 02:01:37;;;;;;;;;;;;;;;21.67;45.93;100041.25;3145261;28;19970;-71
2023/08/12 02:03:08;;;;;;;;;;;;;;;21.64;45.81;100036.22;3150178;28;20396;-72
2023/08/12 02:04:42;;;;;;;;;;;;;;;21.63;45.98;100038.03;3149952;28;20040;-72
2023/08/12 02:06:13;;;;;;;;;;;;;;;21.61;45.96;100033.84;3153522;28;19924;-71
2023/08/12 02:07:45;;;;;;;;;;;;;;;21.58;46.17;100040.25;3153943;28;20274;-72
2023/08/12 02:09:15;;;;;;;;;;;;;;;21.58;45.99;100037.59;3153843;28;19924;-71
2023/08/12 02:10:48;;;;;;;;;;;;;;;21.56;45.92;100026.28;3153725;28;19924;-71
2023/08/12 02:12:19;;;;;;;;;;;;;;;21.55;46.03;100030.75;3153880;28;19936;-71
2023/08/12 02:13:51;;;;;;;;;;;;;;;21.53;45.95;100037.16;3153824;28;20092;-72
2023/08/12 02:15:21;;;;;;;;;;;;;;;21.53;46.16;100029.22;3153790;28;20415;-72
2023/08/12 02:16:53;;;;;;;;;;;;;;;21.52;46.24;100027.53;3153795;28;19924;-72
2023/08/12 02:18:23;;;;;;;;;;;;;;;21.50;46.22;100030.34;3149556;28;19947;-72
2023/08/12 02:19:55;;;;;;;;;;;;;;;21.48;46.37;100034.94;3153346;28;20487;-71
2023/08/12 02:21:26;;;;;;;;;;;;;;;21.45;46.32;100034.34;3153865;28;19946;-71
2023/08/12 02:22:57;;;;;;;;;;;;;;;21.44;46.15;100036.16;3154035;28;20032;-71
2023/08/12 02:24:28;;;;;;;;;;;;;;;21.42;46.40;100032.81;3153486;28;19924;-71
2023/08/12 02:26:02;;;;;;;;;;;;;;;21.42;46.36;100037.28;3152354;28;20528;-72
2023/08/12 02:27:33;;;;;;;;;;;;;;;21.39;46.50;100041.03;3153476;28;19931;-72
2023/08/12 02:29:05;;;;;;;;;;;;;;;21.37;46.34;100039.47;3153455;28;20288;-72
2023/08/12 02:30:36;;;;;;;;;;;;;;;21.33;46.55;100030.94;3153492;28;19924;-72
2023/08/12 02:32:07;;;;;;;;;;;;;;;21.32;46.47;100039.81;3145656;28;20458;-70
2023/08/12 02:33:38;;;;;;;;;;;;;;;21.31;46.49;100044.28;3148553;28;19983;-71
2023/08/12 02:35:10;;;;;;;;;;;;;;;21.30;46.53;100033.84;3153327;28;19989;-73
2023/08/12 02:36:41;;;;;;;;;;;;;;;21.29;46.52;100042.75;3153380;28;19991;-71
2023/08/12 02:38:12;;;;;;;;;;;;;;;21.26;46.56;100046.50;3149432;28;19978;-70
2023/08/12 02:39:43;;;;;;;;;;;;;;;21.22;46.93;100046.91;3149209;28;20053;-71
2023/08/12 02:41:15;;;;;;;;;;;;;;;21.20;46.82;100052.31;3153253;28;19998;-71
2023/08/12 02:42:47;;;;;;;;;;;;;;;21.19;46.68;100057.75;3152865;28;19924;-71
2023/08/12 02:44:18;;;;;;;;;;;;;;;21.18;46.79;100053.41;3142972;28;19932;-71
2023/08/12 02:45:49;;;;;;;;;;;;;;;21.17;46.76;100059.69;3153331;28;19924;-71
2023/08/12 02:47:20;;;;;;;;;;;;;;;21.14;46.93;100055.50;3142982;28;19931;-71
2023/08/12 02:48:52;;;;;;;;;;;;;;;21.11;47.00;100061.88;3153479;28;19993;-71
2023/08/12 02:50:22;;;;;;;;;;;;;;;21.10;46.95;100052.28;3153179;28;20451;-70
2023/08/12 02:51:54;;;;;;;;;;;;;;;21.10;46.94;100056.72;3153393;28;19982;-73
2023/08/12 02:53:24;;;;;;;;;;;;;;;21.08;46.96;100053.38;3153208;28;20735;-71
2023/08/12 02:54:56;;;;;;;;;;;;;;;21.09;46.93;100057.72;3151248;28;19930;-71
2023/08/12 02:56:28;;;;;;;;;;;;;;;21.06;47.12;100057.94;3153448;28;19928;-71
2023/08/12 02:58:00;;;;;;;;;;;;;;;21.06;47.00;100053.50;3151733;28;19924;-72
2023/08/12 02:59:31;;;;;;;;;;;;;;;21.08;46.85;100054.19;3153013;28;19940;-71
2023/08/12 03:01:03;;;;;;;;;;;;;;;21.07;47.29;100054.34;3153219;28;19924;-70
2023/08/12 03:02:35;;;;;;;;;;;;;;;21.07;47.20;100057.81;3148712;28;20271;-71
2023/08/12 03:04:06;;;;;;;;;;;;;;;21.07;46.99;100057.81;3152770;28;19924;-71
2023/08/12 03:05:38;;;;;;;;;;;;;;;21.07;47.08;100055.19;3152976;28;19923;-71
2023/08/12 03:07:09;;;;;;;;;;;;;;;21.08;47.12;100058.66;3153324;28;19932;-72
2023/08/12 03:08:40;;;;;;;;;;;;;;;21.09;47.09;100066.50;3153297;28;19924;-71
2023/08/12 03:10:12;;;;;;;;;;;;;;;21.08;47.07;100064.78;3153384;28;19931;-71
2023/08/12 03:11:44;;;;;;;;;;;;;;;21.05;47.16;100059.75;3152923;28;20368;-71
2023/08/12 03:13:15;;;;;;;;;;;;;;;21.02;47.26;100062.66;3153206;28;19966;-71
2023/08/12 03:14:46;;;;;;;;;;;;;;;21.02;47.34;100053.88;3153404;28;20302;-72
2023/08/12 03:16:18;;;;;;;;;;;;;;;21.03;47.16;100059.06;3150358;28;19931;-71
2023/08/12 03:17:48;;;;;;;;;;;;;;;21.06;47.10;100061.47;3151612;28;20589;-71
2023/08/12 03:19:20;;;;;;;;;;;;;;;21.09;47.08;100066.50;3152836;28;19960;-71
2023/08/12 03:20:50;;;;;;;;;;;;;;;21.11;47.11;100059.22;3153262;28;20023;-71
2023/08/12 03:22:22;;;;;;;;;;;;;;;21.15;47.10;100062.47;3153029;28;19934;-71
2023/08/12 03:23:53;;;;;;;;;;;;;;;21.17;46.95;100060.53;3145274;28;20340;-73
2023/08/12 03:25:25;;;;;;;;;;;;;;;21.19;47.03;100060.41;3140669;28;19932;-73
2023/08/12 03:26:57;;;;;;;;;;;;;;;21.21;46.96;100058.44;3140645;28;19924;-71
2023/08/12 03:28:28;;;;;;;;;;;;;;;21.22;46.93;100060.16;3140396;28;20341;-72
2023/08/12 03:29:59;;;;;;;;;;;;;;;21.21;47.01;100056.66;3140172;28;19924;-71
2023/08/12 03:31:31;;;;;;;;;;;;;;;21.19;47.05;100055.09;3135993;28;19981;-71
2023/08/12 03:33:02;;;;;;;;;;;;;;;21.19;47.28;100049.81;3140450;28;19930;-71
2023/08/12 03:34:34;;;;;;;;;;;;;;;21.18;47.28;100056.06;3140155;28;19998;-71
2023/08/12 03:36:05;;;;;;;;;;;;;;;21.16;47.14;100058.84;3132870;28;19944;-71
2023/08/12 03:37:36;;;;;;;;;;;;;;;21.17;47.32;100057.88;3137380;28;19936;-71
2023/08/12 03:39:07;;;;;;;;;;;;;;;21.18;47.24;100059.56;3133818;28;19998;-70
2023/08/12 03:40:39;;;;;;;;;;;;;;;21.17;47.19;100059.69;3140419;28;20017;-71
2023/08/12 03:42:11;;;;;;;;;;;;;;;21.16;47.41;100060.66;3140120;28;19982;-71
2023/08/12 03:43:42;;;;;;;;;;;;;;;21.15;47.22;100062.47;3130831;28;19924;-71
2023/08/12 03:45:13;;;;;;;;;;;;;;;21.16;47.47;100066.81;3136225;28;19924;-71
2023/08/12 03:46:44;;;;;;;;;;;;;;;21.18;47.33;100071.94;3131363;28;19983;-70
2023/08/12 03:48:15;;;;;;;;;;;;;;;21.17;47.31;100068.47;3134997;28;19974;-71
2023/08/12 03:49:47;;;;;;;;;;;;;;;21.18;47.32;100071.94;3140575;28;20023;-71
2023/08/12 03:51:18;;;;;;;;;;;;;;;21.19;47.31;100069.19;3140293;28;19947;-71
2023/08/12 03:52:49;;;;;;;;;;;;;;;21.20;47.21;100072.66;3140218;28;19993;-71
2023/08/12 03:54:20;;;;;;;;;;;;;;;21.21;47.29;100074.34;3131999;28;20616;-71
2023/08/12 03:55:51;;;;;;;;;;;;;;;21.23;47.23;100080.34;3139895;28;19950;-71
2023/08/12 03:57:24;;;;;;;;;;;;;;;21.26;47.21;100078.28;3140323;28;19971;-70
2023/08/12 03:58:55;;;;;;;;;;;;;;;21.27;46.96;100081.78;3139966;28;19928;-71
2023/08/12 04:00:27;;;;;;;;;;;;;;;21.30;46.93;100073.56;3135818;28;20370;-71
2023/08/12 04:01:57;;;;;;;;;;;;;;;21.32;47.08;100079.56;3140239;28;19931;-72
2023/08/12 04:03:29;;;;;;;;;;;;;;;21.36;46.94;100081.03;3140165;28;19928;-71
2023/08/12 04:05:00;;;;;;;;;;;;;;;21.39;46.74;100083.41;3140131;28;19947;-71
2023/08/12 04:06:31;;;;;;;;;;;;;;;21.41;46.91;100078.81;3139987;28;19924;-71
2023/08/12 04:08:02;;;;;;;;;;;;;;;21.42;46.87;100082.31;3140255;28;19982;-71
2023/08/12 04:09:34;;;;;;;;;;;;;;;21.41;46.90;100088.56;3139764;28;19929;-70
2023/08/12 04:11:05;;;;;;;;;;;;;;;21.42;47.05;100085.81;3140166;28;19928;-71
2023/08/12 04:12:37;;;;;;;;;;;;;;;21.41;47.19;100084.09;3140093;28;19928;-70
2023/08/12 04:14:09;;;;;;;;;;;;;;;21.41;46.90;100088.56;3140001;28;19931;-71
2023/08/12 04:15:41;;;;;;;;;;;;;;;21.41;46.85;100092.03;3135858;28;19928;-71
2023/08/12 04:17:12;;;;;;;;;;;;;;;21.40;46.89;100089.53;3139756;28;19982;-70
2023/08/12 04:18:43;;;;;;;;;;;;;;;21.40;47.08;100090.38;3140140;28;19924;-71
2023/08/12 04:20:14;;;;;;;;;;;;;;;21.40;46.91;100090.38;3140162;28;19930;-71
2023/08/12 04:21:46;;;;;;;;;;;;;;;21.39;47.00;100088.72;3136119;28;19931;-71
2023/08/12 04:23:18;;;;;;;;;;;;;;;21.39;47.10;100090.53;3130633;28;19935;-71
2023/08/12 04:24:48;;;;;;;;;;;;;;;21.38;47.01;100087.00;3140061;28;19928;-71
2023/08/12 04:26:20;;;;;;;;;;;;;;;21.36;46.96;100086.31;3139789;28;20550;-71
2023/08/12 04:27:52;;;;;;;;;;;;;;;21.35;46.97;100098.72;3140088;28;19924;-71
2023/08/12 04:29:24;;;;;;;;;;;;;;;21.37;47.07;100089.81;3136202;28;19925;-71
2023/08/12 04:30:54;;;;;;;;;;;;;;;21.37;47.11;100101.25;3127535;28;20005;-70
2023/08/12 04:32:26;;;;;;;;;;;;;;;21.37;46.91;100095.94;3128893;28;20707;-71
2023/08/12 04:33:58;;;;;;;;;;;;;;;21.38;47.06;100100.25;3137716;28;19925;-70
2023/08/12 04:35:31;;;;;;;;;;;;;;;21.35;47.22;100101.34;3139705;28;20360;-71
2023/08/12 04:37:02;;;;;;;;;;;;;;;21.36;46.95;100091.63;3140100;28;19924;-71
2023/08/12 04:38:33;;;;;;;;;;;;;;;21.35;47.09;100097.84;3136566;28;19966;-70
2023/08/12 04:40:07;;;;;;;;;;;;;;;21.34;47.28;100097.00;3138267;28;19928;-71
2023/08/12 04:41:38;;;;;;;;;;;;;;;21.35;47.03;100095.19;3139742;28;19924;-71
2023/08/12 04:43:13;;;;;;;;;;;;;;;21.33;47.34;100100.63;3137674;28;20016;-71
2023/08/12 04:44:44;;;;;;;;;;;;;;;21.32;47.29;100106.06;3127515;28;19924;-71
2023/08/12 04:46:16;;;;;;;;;;;;;;;21.33;47.40;100103.28;3130663;28;19931;-72
2023/08/12 04:47:47;;;;;;;;;;;;;;;21.32;47.28;100106.06;3130473;28;20459;-71
2023/08/12 04:49:18;;;;;;;;;;;;;;;21.30;47.31;100106.19;3141035;28;19986;-71
2023/08/12 04:50:49;;;;;;;;;;;;;;;21.32;47.43;100103.41;3131929;28;19928;-71
2023/08/12 04:52:21;;;;;;;;;;;;;;;21.33;47.31;100100.63;3142058;28;20039;-71
2023/08/12 04:53:52;;;;;;;;;;;;;;;21.34;47.37;100097.00;3139445;28;20342;-71
2023/08/12 04:55:25;;;;;;;;;;;;;;;21.34;47.22;100101.47;3117536;28;19932;-71
2023/08/12 04:56:56;;;;;;;;;;;;;;;21.34;47.26;100110.25;3141029;28;19955;-71
2023/08/12 04:58:29;;;;;;;;;;;;;;;21.34;47.45;100106.78;3139740;28;20049;-71
2023/08/12 05:00:00;;;;;;;;;;;;;;;21.31;47.37;100102.56;3140018;28;19935;-71
2023/08/12 05:01:31;;;;;;;;;;;;;;;21.32;47.52;100108.69;3141662;28;19924;-71
2023/08/12 05:03:02;;;;;;;;;;;;;;;21.32;47.63;100108.69;3142258;28;19924;-72
2023/08/12 05:04:34;;;;;;;;;;;;;;;21.32;47.57;100104.25;3141913;28;20111;-71
2023/08/12 05:06:05;;;;;;;;;;;;;;;21.33;47.32;100105.09;3142171;28;19950;-71
2023/08/12 05:07:36;;;;;;;;;;;;;;;21.36;47.24;100104.88;3141862;28;19924;-72
2023/08/12 05:09:07;;;;;;;;;;;;;;;21.39;47.45;100107.25;3141834;28;19928;-73
2023/08/12 05:10:38;;;;;;;;;;;;;;;21.42;47.38;100107.00;3142012;28;20015;-71
2023/08/12 05:12:09;;;;;;;;;;;;;;;21.43;47.45;100108.66;3142045;28;20413;-71
2023/08/12 05:13:42;;;;;;;;;;;;;;;21.43;47.54;100111.31;3137999;28;19924;-72
2023/08/12 05:15:12;;;;;;;;;;;;;;;21.46;47.44;100105.75;3141898;28;19932;-71
2023/08/12 05:16:44;;;;;;;;;;;;;;;21.48;47.58;100111.75;3141740;28;20014;-73
2023/08/12 05:18:15;;;;;;;;;;;;;;;21.49;47.43;100110.78;3141729;28;19936;-73
2023/08/12 05:19:47;;;;;;;;;;;;;;;21.50;47.58;100107.19;3141918;28;19924;-73
2023/08/12 05:21:17;;;;;;;;;;;;;;;21.50;47.54;100108.97;3117452;28;20143;-73
2023/08/12 05:22:49;;;;;;;;;;;;;;;21.51;47.59;100110.66;3140839;28;20329;-73
2023/08/12 05:24:20;;;;;;;;;;;;;;;21.52;47.50;100107.03;3141674;28;19925;-73
2023/08/12 05:25:51;;;;;;;;;;;;;;;21.52;47.56;100105.22;3141753;28;20065;-73
2023/08/12 05:27:22;;;;;;;;;;;;;;;21.56;47.43;100114.59;3141755;28;19928;-72
2023/08/12 05:28:55;;;;;;;;;;;;;;;21.58;47.65;100110.00;3137677;28;20011;-73
2023/08/12 05:30:25;;;;;;;;;;;;;;;21.60;47.75;100112.53;3141692;28;19924;-73
2023/08/12 05:31:57;;;;;;;;;;;;;;;21.63;47.49;100116.72;3141703;28;19978;-73
2023/08/12 05:33:28;;;;;;;;;;;;;;;21.62;47.73;100113.22;3141982;28;19925;-73
2023/08/12 05:35:00;;;;;;;;;;;;;;;21.60;47.74;100123.13;3141783;28;19928;-72
2023/08/12 05:36:30;;;;;;;;;;;;;;;21.57;47.88;100118.09;3129774;28;20023;-73
2023/08/12 05:38:02;;;;;;;;;;;;;;;21.57;47.90;100118.09;3133106;28;19928;-73
2023/08/12 05:39:32;;;;;;;;;;;;;;;21.56;47.99;100122.56;3141706;28;19979;-71
2023/08/12 05:41:07;;;;;;;;;;;;;;;21.56;48.06;100116.38;3141775;28;19924;-73
2023/08/12 05:42:37;;;;;;;;;;;;;;;21.57;48.15;100112.78;3136479;28;19975;-73
2023/08/12 05:44:10;;;;;;;;;;;;;;;21.58;47.87;100117.94;3131496;28;19925;-73
2023/08/12 05:45:41;;;;;;;;;;;;;;;21.60;47.78;100117.00;3141192;28;19930;-72
2023/08/12 05:47:13;;;;;;;;;;;;;;;21.62;47.96;100115.84;3132318;28;19928;-72
2023/08/12 05:48:43;;;;;;;;;;;;;;;21.64;47.90;100115.75;3140351;28;19947;-73
2023/08/12 05:50:15;;;;;;;;;;;;;;;21.65;47.89;100114.75;3141135;28;20007;-72
2023/08/12 05:51:45;;;;;;;;;;;;;;;21.67;47.81;100107.53;3141458;28;19974;-73
2023/08/12 05:53:17;;;;;;;;;;;;;;;21.68;47.80;100107.41;3141184;28;20383;-73
2023/08/12 05:54:47;;;;;;;;;;;;;;;21.69;47.92;100101.13;3138308;28;20475;-73
2023/08/12 05:56:19;;;;;;;;;;;;;;;21.71;47.82;100100.97;3141626;28;19924;-72
2023/08/12 05:57:50;;;;;;;;;;;;;;;21.74;47.84;100108.66;3136468;28;19928;-73
2023/08/12 05:59:23;;;;;;;;;;;;;;;21.75;48.00;100100.59;3140980;28;19925;-73
2023/08/12 06:00:53;;;;;;;;;;;;;;;21.77;47.94;100105.75;3141159;28;19946;-72
2023/08/12 06:02:26;;;;;;;;;;;;;;;21.79;47.84;100109.09;3141489;28;19924;-72
2023/08/12 06:03:58;;;;;;;;;;;;;;;21.81;47.79;100104.50;3141409;28;20035;-73
2023/08/12 06:05:28;;;;;;;;;;;;;;;21.84;47.70;100106.06;3141235;28;19934;-73
2023/08/12 06:07:00;;;;;;;;;;;;;;;21.83;47.68;100099.94;3141216;28;20143;-72
2023/08/12 06:08:30;;;;;;;;;;;;;;;21.83;47.98;100097.28;3141363;28;19924;-73
2023/08/12 06:10:02;;;;;;;;;;;;;;;21.82;48.02;100095.56;3141244;28;19993;-73
2023/08/12 06:11:33;;;;;;;;;;;;;;;21.83;47.80;100097.28;3138606;28;20362;-73
2023/08/12 06:13:05;;;;;;;;;;;;;;;21.84;48.00;100093.63;3140221;28;19928;-73
2023/08/12 06:14:38;;;;;;;;;;;;;;;21.88;47.76;100096.84;3141210;28;19924;-73
2023/08/12 06:16:09;;;;;;;;;;;;;;;21.90;47.96;100095.75;3141285;28;19960;-73
2023/08/12 06:17:40;;;;;;;;;;;;;;;21.92;47.96;100098.28;3141265;28;19955;-73
2023/08/12 06:19:12;;;;;;;;;;;;;;;21.93;47.93;100089.34;3141780;28;20385;-73
2023/08/12 06:20:42;;;;;;;;;;;;;;;21.96;48.09;100091.72;3141211;28;20368;-74
2023/08/12 06:22:14;;;;;;;;;;;;;;;21.99;47.85;100092.28;3141088;28;20006;-73
2023/08/12 06:23:45;;;;;;;;;;;;;;;22.02;47.95;100091.19;3147645;28;19924;-73
2023/08/12 06:25:16;;;;;;;;;;;;;;;22.08;47.77;100090.63;3145813;28;19935;-73
2023/08/12 06:26:48;;;;;;;;;;;;;;;22.14;47.59;100090.09;3153510;28;19924;-73
2023/08/12 06:28:18;;;;;;;;;;;;;;;22.18;47.65;100088.88;3153356;28;20436;-71
2023/08/12 06:29:51;;;;;;;;;;;;;;;22.23;47.54;100084.00;3153603;28;19923;-71
2023/08/12 06:31:23;;;;;;;;;;;;;;;22.26;47.53;100089.03;3152969;28;19977;-71
2023/08/12 06:32:54;;;;;;;;;;;;;;;22.31;47.45;100090.44;3141057;28;20005;-71
2023/08/12 06:34:25;;;;;;;;;;;;;;;22.35;47.72;100086.53;3141114;28;19924;-72
2023/08/12 06:35:57;;;;;;;;;;;;;;;22.43;47.38;100084.84;3141123;28;19924;-72
2023/08/12 06:37:28;;;;;;;;;;;;;;;22.55;47.45;100090.88;3140975;28;19924;-72
2023/08/12 06:38:59;;;;;;;;;;;;;;;22.65;47.19;100088.22;3140981;28;19924;-71
2023/08/12 06:40:30;;;;;;;;;;;;;;;22.76;47.01;100082.75;3150092;28;19938;-72
2023/08/12 06:42:03;;;;;;;;;;;;;;;22.90;46.65;100082.34;3149127;28;19923;-72
2023/08/12 06:43:34;;;;;;;;;;;;;;;23.04;46.64;100094.38;3144194;28;19924;-72
2023/08/12 06:45:08;;;;;;;;;;;;;;;23.16;46.54;100087.91;3148721;28;20106;-71
2023/08/12 06:46:39;;;;;;;;;;;;;;;23.26;46.23;100090.53;3149083;28;19924;-72
2023/08/12 06:48:11;;;;;;;;;;;;;;;23.35;46.26;100095.00;3147740;28;20552;-72
2023/08/12 06:49:41;;;;;;;;;;;;;;;23.47;45.98;100093.00;3153660;28;19924;-71
2023/08/12 06:51:13;;;;;;;;;;;;;;;23.61;45.77;100086.38;3153391;28;20456;-71
2023/08/12 06:52:44;;;;;;;;;;;;;;;23.77;45.59;100091.91;3153001;28;19930;-71
2023/08/12 06:54:15;;;;;;;;;;;;;;;23.93;45.24;100085.97;3150415;28;20498;-72
2023/08/12 06:55:46;;;;;;;;;;;;;;;24.08;44.81;100083.66;3149061;28;19932;-72
2023/08/12 06:57:17;;;;;;;;;;;;;;;24.16;44.64;100074.91;3153394;28;19924;-72
2023/08/12 06:58:48;;;;;;;;;;;;;;;24.26;44.63;100075.69;3153389;28;19971;-71
2023/08/12 07:00:21;;;;;;;;;;;;;;;24.39;44.17;100075.31;3153222;28;20383;-71
2023/08/12 07:01:52;;;;;;;;;;;;;;;24.48;44.32;100079.75;3147328;28;19947;-71
2023/08/12 07:03:23;;;;;;;;;;;;;;;24.59;44.10;100078.69;3153035;28;19924;-72
2023/08/12 07:04:54;;;;;;;;;;;;;;;24.68;43.92;100073.28;3153310;28;19951;-72
2023/08/12 07:06:26;;;;;;;;;;;;;;;24.78;43.49;100067.03;3153089;28;19924;-72
2023/08/12 07:07:57;;;;;;;;;;;;;;;24.90;43.33;100076.44;3153464;28;19924;-72
2023/08/12 07:09:28;;;;;;;;;;;;;;;24.98;43.01;100072.00;3153224;28;20076;-71
2023/08/12 07:11:00;;;;;;;;;;;;;;;25.07;42.94;100064.09;3141544;28;20619;-71
2023/08/12 07:12:30;;;;;;;;;;;;;;;25.18;42.37;100069.19;3147547;28;19928;-71
2023/08/12 07:14:02;;;;;;;;;;;;;;;25.28;42.53;100066.41;3153002;28;19981;-72
2023/08/12 07:15:34;;;;;;;;;;;;;;;25.39;42.41;100064.31;3153449;28;19924;-72
2023/08/12 07:17:06;;;;;;;;;;;;;;;25.51;42.05;100062.19;3153017;28;20395;-70
2023/08/12 07:18:36;;;;;;;;;;;;;;;25.61;42.08;100060.22;3153098;28;19924;-72
2023/08/12 07:20:08;;;;;;;;;;;;;;;25.76;41.86;100067.63;3152009;28;20405;-71
2023/08/12 07:21:40;;;;;;;;;;;;;;;25.88;41.38;100069.03;3143260;28;20575;-72
2023/08/12 07:23:10;;;;;;;;;;;;;;;25.98;41.49;100067.09;3152613;28;20080;-72
2023/08/12 07:24:42;;;;;;;;;;;;;;;26.09;40.92;100065.97;3148684;28;19944;-71
2023/08/12 07:26:14;;;;;;;;;;;;;;;26.22;41.16;100065.47;3153060;28;20390;-71
2023/08/12 07:27:44;;;;;;;;;;;;;;;26.33;40.84;100063.34;3151899;28;20356;-72
2023/08/12 07:29:16;;;;;;;;;;;;;;;26.41;40.52;100062.47;3153116;28;19924;-72
2023/08/12 07:30:49;;;;;;;;;;;;;;;26.51;39.99;100065.88;3152967;28;20466;-72
2023/08/12 07:32:20;;;;;;;;;;;;;;;26.59;40.21;100066.88;3153083;28;19930;-71
2023/08/12 07:33:51;;;;;;;;;;;;;;;26.69;40.04;100064.88;3152830;28;19928;-71
2023/08/12 07:35:23;;;;;;;;;;;;;;;26.83;39.57;100060.69;3152676;28;19924;-71
2023/08/12 07:36:53;;;;;;;;;;;;;;;26.94;39.41;100061.19;3152921;28;19981;-71
2023/08/12 07:38:25;;;;;;;;;;;;;;;26.99;39.02;100058.84;3148227;28;20409;-71
2023/08/12 07:39:55;;;;;;;;;;;;;;;27.06;39.07;100067.00;3147185;28;20373;-71
2023/08/12 07:41:27;;;;;;;;;;;;;;;27.15;38.88;100062.53;3152823;28;19923;-71
2023/08/12 07:42:58;;;;;;;;;;;;;;;27.21;38.35;100061.84;3152309;28;19924;-71
2023/08/12 07:44:30;;;;;;;;;;;;;;;27.22;38.21;100064.34;3143300;28;20415;-71
2023/08/12 07:46:04;;;;;;;;;;;;;;;27.28;38.27;100062.84;3152617;28;19924;-71
2023/08/12 07:47:34;;;;;;;;;;;;;;;27.38;38.23;100062.63;3142740;28;20029;-71
2023/08/12 07:49:06;;;;;;;;;;;;;;;27.51;38.33;100057.59;3152968;28;19947;-71
2023/08/12 07:50:38;;;;;;;;;;;;;;;27.65;38.03;100058.69;3153067;28;19930;-71